createdAt,value
2023-03-27T00:01:13.274Z,85.10
2023-03-27T00:03:40.862Z,85.50
2023-03-27T00:06:11.934Z,85.48
2023-03-27T00:08:38.854Z,85.58
2023-03-27T00:11:08.066Z,85.55
2023-03-27T00:13:36.572Z,85.27
2023-03-27T00:16:16.323Z,85.89
2023-03-27T00:18:43.127Z,86.05
2023-03-27T00:21:09.884Z,86.56
2023-03-27T00:23:36.710Z,86.48
2023-03-27T00:26:04.387Z,85.60
2023-03-27T00:28:31.168Z,85.63
2023-03-27T00:30:58.540Z,85.43
2023-03-27T00:33:26.000Z,85.96
2023-03-27T00:35:52.995Z,85.92
2023-03-27T00:38:20.939Z,85.26
2023-03-27T00:40:50.817Z,86.03
2023-03-27T00:43:26.529Z,86.24
2023-03-27T00:46:08.081Z,86.00
2023-03-27T00:48:37.745Z,86.77
2023-03-27T00:51:05.826Z,87.62
2023-03-27T00:53:33.638Z,88.59
2023-03-27T00:56:03.792Z,88.97
2023-03-27T00:58:41.246Z,88.46
2023-03-27T01:01:12.654Z,87.88
2023-03-27T01:03:42.488Z,88.37
2023-03-27T01:06:11.212Z,88.67
2023-03-27T01:08:38.667Z,88.63
2023-03-27T01:11:43.401Z,88.59
2023-03-27T01:14:30.519Z,88.11
2023-03-27T01:17:00.394Z,88.37
2023-03-27T01:19:33.123Z,88.20
2023-03-27T01:22:44.110Z,88.44
2023-03-27T01:25:10.797Z,87.97
2023-03-27T01:28:06.678Z,87.35
2023-03-27T01:30:38.929Z,87.21
2023-03-27T01:33:09.031Z,87.00
2023-03-27T01:35:51.248Z,87.19
2023-03-27T01:39:00.218Z,87.63
2023-03-27T01:41:47.370Z,88.55
2023-03-27T01:44:26.002Z,89.03
2023-03-27T01:47:30.185Z,88.86
2023-03-27T01:50:37.424Z,88.38
2023-03-27T01:53:12.999Z,88.80
2023-03-27T01:55:45.622Z,88.30
2023-03-27T01:58:19.156Z,88.60
2023-03-27T02:00:53.241Z,88.66
2023-03-27T02:03:30.411Z,88.68
2023-03-27T02:06:12.321Z,88.67
2023-03-27T02:08:58.734Z,88.32
2023-03-27T02:11:30.616Z,88.23
2023-03-27T02:14:07.479Z,88.28
2023-03-27T02:16:46.999Z,88.21
2023-03-27T02:19:20.820Z,87.69
2023-03-27T02:21:48.188Z,87.64
2023-03-27T02:24:19.344Z,88.00
2023-03-27T02:26:51.790Z,87.94
2023-03-27T02:29:43.937Z,87.45
2023-03-27T02:32:17.445Z,87.31
2023-03-27T02:35:01.460Z,87.33
2023-03-27T02:37:49.853Z,87.14
2023-03-27T02:40:41.309Z,87.06
2023-03-27T02:43:48.989Z,86.35
2023-03-27T02:46:31.551Z,86.37
2023-03-27T02:49:04.608Z,86.70
2023-03-27T02:51:38.104Z,86.40
2023-03-27T02:54:27.680Z,86.43
2023-03-27T02:57:03.505Z,86.65
2023-03-27T02:59:52.884Z,86.80
2023-03-27T03:02:26.705Z,86.62
2023-03-27T03:05:06.227Z,86.90
2023-03-27T03:07:40.233Z,87.19
2023-03-27T03:10:09.791Z,87.09
2023-03-27T03:12:36.884Z,86.63
2023-03-27T03:15:04.219Z,86.95
2023-03-27T03:17:31.594Z,87.34
2023-03-27T03:19:58.287Z,87.28
2023-03-27T03:22:26.380Z,87.12
2023-03-27T03:24:53.566Z,86.92
2023-03-27T03:27:25.824Z,87.16
2023-03-27T03:30:01.520Z,86.81
2023-03-27T03:32:30.975Z,86.86
2023-03-27T03:34:58.000Z,86.72
2023-03-27T03:37:28.669Z,86.14
2023-03-27T03:39:57.309Z,86.07
2023-03-27T03:42:24.559Z,86.51
2023-03-27T03:44:54.109Z,86.19
2023-03-27T03:47:22.503Z,85.35
2023-03-27T03:49:50.435Z,85.51
2023-03-27T03:52:17.610Z,85.55
2023-03-27T03:54:46.564Z,85.78
2023-03-27T03:57:13.881Z,85.20
2023-03-27T03:59:41.360Z,85.60
2023-03-27T04:02:43.663Z,86.62
2023-03-27T04:05:13.396Z,86.85
2023-03-27T04:07:41.239Z,86.84
2023-03-27T04:10:27.845Z,86.42
2023-03-27T04:12:55.545Z,86.05
2023-03-27T04:15:27.455Z,85.18
2023-03-27T04:18:06.199Z,84.78
2023-03-27T04:20:34.754Z,85.35
2023-03-27T04:23:05.950Z,86.19
2023-03-27T04:25:36.639Z,87.00
2023-03-27T04:28:03.688Z,87.49
2023-03-27T04:30:34.852Z,87.08
2023-03-27T04:33:20.325Z,86.76
2023-03-27T04:36:10.660Z,87.07
2023-03-27T04:39:13.061Z,86.58
2023-03-27T04:41:39.981Z,86.09
2023-03-27T04:44:07.424Z,86.94
2023-03-27T04:46:38.916Z,87.65
2023-03-27T04:49:09.513Z,88.10
2023-03-27T04:51:49.392Z,87.86
2023-03-27T04:54:17.924Z,87.79
2023-03-27T04:56:46.700Z,87.14
2023-03-27T04:59:15.564Z,85.91
2023-03-27T05:01:43.443Z,86.59
2023-03-27T05:04:10.302Z,87.14
2023-03-27T05:07:00.362Z,85.76
2023-03-27T05:09:27.396Z,86.27
2023-03-27T05:11:54.134Z,86.47
2023-03-27T05:14:23.048Z,84.86
2023-03-27T05:16:52.399Z,85.07
2023-03-27T05:19:21.055Z,84.86
2023-03-27T05:21:56.540Z,85.11
2023-03-27T05:24:23.461Z,84.25
2023-03-27T05:26:50.289Z,85.13
2023-03-27T05:29:17.195Z,85.92
2023-03-27T05:31:46.374Z,85.74
2023-03-27T05:34:46.121Z,86.46
2023-03-27T05:37:16.586Z,85.69
2023-03-27T05:40:17.497Z,86.60
2023-03-27T05:42:47.526Z,87.00
2023-03-27T05:45:15.521Z,87.38
2023-03-27T05:47:46.409Z,87.41
2023-03-27T05:50:14.657Z,86.81
2023-03-27T05:52:42.214Z,86.76
2023-03-27T05:55:10.498Z,85.44
2023-03-27T05:57:40.646Z,85.49
2023-03-27T06:00:14.053Z,85.43
2023-03-27T06:02:43.835Z,85.48
2023-03-27T06:05:14.352Z,85.56
2023-03-27T06:07:47.709Z,85.58
2023-03-27T06:10:20.362Z,85.70
2023-03-27T06:13:06.569Z,86.05
2023-03-27T06:15:42.764Z,86.25
2023-03-27T06:18:22.203Z,86.50
2023-03-27T06:20:49.029Z,86.76
2023-03-27T06:23:15.973Z,87.11
2023-03-27T06:25:44.213Z,88.15
2023-03-27T06:28:13.353Z,87.79
2023-03-27T06:30:45.111Z,87.66
2023-03-27T06:33:27.496Z,86.46
2023-03-27T06:36:00.838Z,87.39
2023-03-27T06:38:33.468Z,87.84
2023-03-27T06:41:04.810Z,87.57
2023-03-27T06:43:49.902Z,87.48
2023-03-27T06:46:42.695Z,87.49
2023-03-27T06:49:37.593Z,87.20
2023-03-27T06:52:17.736Z,86.97
2023-03-27T06:54:46.252Z,86.87
2023-03-27T06:57:13.701Z,85.43
2023-03-27T06:59:48.945Z,84.98
2023-03-27T07:02:20.761Z,84.59
2023-03-27T07:04:57.715Z,85.32
2023-03-27T07:07:36.187Z,85.91
2023-03-27T07:10:03.669Z,86.32
2023-03-27T07:12:31.040Z,85.95
2023-03-27T07:14:57.998Z,84.77
2023-03-27T07:17:34.880Z,83.64
2023-03-27T07:20:14.005Z,83.73
2023-03-27T07:22:43.013Z,82.57
2023-03-27T07:25:20.028Z,82.83
2023-03-27T07:27:47.376Z,82.80
2023-03-27T07:30:14.388Z,81.43
2023-03-27T07:32:44.670Z,81.71
2023-03-27T07:35:12.814Z,81.97
2023-03-27T07:38:03.279Z,81.61
2023-03-27T07:40:40.076Z,78.67
2023-03-27T07:43:45.868Z,67.20
2023-03-27T07:46:12.960Z,64.68
2023-03-27T07:48:40.034Z,76.17
2023-03-27T07:51:14.362Z,75.85
2023-03-27T07:53:43.701Z,73.67
2023-03-27T07:56:23.585Z,74.13
2023-03-27T07:59:06.918Z,63.65
2023-03-27T08:01:34.288Z,58.93
2023-03-27T08:04:01.758Z,54.15
2023-03-27T08:06:29.293Z,46.78
2023-03-27T08:08:57.176Z,48.95
2023-03-27T08:11:30.681Z,54.73
2023-03-27T08:13:59.059Z,54.19
2023-03-27T08:16:29.645Z,52.37
2023-03-27T08:18:58.694Z,54.67
2023-03-27T08:21:26.596Z,58.66
2023-03-27T08:23:57.756Z,56.49
2023-03-27T08:26:33.927Z,62.55
2023-03-27T08:29:09.000Z,65.92
2023-03-27T08:31:37.085Z,64.03
2023-03-27T08:34:05.341Z,62.25
2023-03-27T08:36:58.426Z,63.36
2023-03-27T08:39:34.874Z,61.21
2023-03-27T08:42:08.404Z,60.51
2023-03-27T08:44:38.619Z,57.29
2023-03-27T08:47:33.255Z,57.27
2023-03-27T08:50:22.032Z,56.19
2023-03-27T08:52:52.885Z,52.70
2023-03-27T08:55:38.528Z,53.94
2023-03-27T08:58:21.630Z,53.39
2023-03-27T09:01:22.304Z,47.51
2023-03-27T09:04:28.443Z,46.89
2023-03-27T09:07:15.378Z,52.49
2023-03-27T09:10:22.368Z,52.67
2023-03-27T09:12:56.880Z,53.92
2023-03-27T09:15:28.470Z,53.34
2023-03-27T09:18:02.969Z,52.29
2023-03-27T09:21:07.918Z,53.74
2023-03-27T09:23:46.503Z,50.91
2023-03-27T09:26:47.624Z,49.12
2023-03-27T09:29:39.464Z,49.96
2023-03-27T09:32:26.690Z,44.97
2023-03-27T09:35:03.770Z,42.27
2023-03-27T09:37:31.518Z,42.32
2023-03-27T09:40:00.424Z,45.20
2023-03-27T09:42:41.281Z,44.61
2023-03-27T09:45:12.637Z,42.12
2023-03-27T09:48:04.197Z,44.22
2023-03-27T09:50:47.480Z,44.66
2023-03-27T09:53:28.033Z,45.13
2023-03-27T09:56:12.843Z,40.95
2023-03-27T09:58:46.259Z,42.05
2023-03-27T10:01:16.159Z,42.97
2023-03-27T10:03:51.898Z,44.17
2023-03-27T10:06:38.786Z,45.08
2023-03-27T10:09:27.666Z,44.55
2023-03-27T10:12:06.096Z,47.03
2023-03-27T10:14:39.262Z,45.17
2023-03-27T10:17:13.034Z,44.73
2023-03-27T10:19:42.155Z,43.73
2023-03-27T10:22:31.100Z,45.70
2023-03-27T10:25:04.898Z,45.08
2023-03-27T10:27:53.009Z,44.57
2023-03-27T10:30:38.140Z,43.08
2023-03-27T10:33:41.376Z,41.85
2023-03-27T10:36:20.378Z,41.90
2023-03-27T10:38:54.939Z,42.56
2023-03-27T10:41:48.644Z,40.07
2023-03-27T10:44:19.245Z,39.67
2023-03-27T10:46:53.612Z,42.44
2023-03-27T10:49:42.760Z,43.10
2023-03-27T10:52:23.324Z,43.73
2023-03-27T10:55:44.991Z,44.43
2023-03-27T10:58:52.140Z,42.02
2023-03-27T11:01:31.379Z,42.41
2023-03-27T11:04:09.145Z,34.26
2023-03-27T11:06:48.839Z,29.45
2023-03-27T11:09:34.387Z,26.58
2023-03-27T11:12:16.850Z,24.98
2023-03-27T11:15:13.614Z,25.51
2023-03-27T11:17:48.175Z,24.68
2023-03-27T11:20:31.454Z,24.55
2023-03-27T11:23:17.341Z,21.34
2023-03-27T11:26:06.098Z,20.65
2023-03-27T11:28:41.258Z,23.09
2023-03-27T11:31:34.613Z,26.35
2023-03-27T11:34:07.425Z,23.41
2023-03-27T11:36:41.883Z,33.74
2023-03-27T11:39:36.574Z,27.42
2023-03-27T11:42:17.895Z,39.20
2023-03-27T11:44:47.989Z,22.79
2023-03-27T11:48:10.208Z,23.19
2023-03-27T11:50:50.521Z,24.40
2023-03-27T11:53:45.406Z,20.69
2023-03-27T11:56:24.836Z,41.90
2023-03-27T11:59:23.114Z,22.56
2023-03-27T12:02:02.860Z,19.07
2023-03-27T12:04:59.710Z,19.58
2023-03-27T12:07:48.167Z,19.76
2023-03-27T12:10:30.240Z,22.22
2023-03-27T12:13:40.735Z,22.04
2023-03-27T12:16:22.556Z,20.71
2023-03-27T12:20:01.971Z,20.96
2023-03-27T12:22:39.122Z,17.69
2023-03-27T12:25:33.634Z,20.34
2023-03-27T12:28:53.018Z,18.55
2023-03-27T12:31:53.108Z,19.18
2023-03-27T12:34:41.621Z,19.48
2023-03-27T12:37:13.707Z,19.64
2023-03-27T12:39:54.196Z,20.42
2023-03-27T12:42:43.947Z,20.30
2023-03-27T12:45:22.616Z,18.49
2023-03-27T12:48:10.765Z,20.41
2023-03-27T12:50:53.757Z,20.38
2023-03-27T12:53:29.750Z,19.26
2023-03-27T12:56:19.539Z,19.35
2023-03-27T12:58:52.937Z,20.40
2023-03-27T13:02:07.023Z,20.09
2023-03-27T13:04:49.927Z,19.72
2023-03-27T13:07:24.796Z,20.47
2023-03-27T13:10:29.949Z,22.32
2023-03-27T13:13:18.524Z,21.03
2023-03-27T13:15:57.779Z,21.37
2023-03-27T13:18:55.608Z,20.61
2023-03-27T13:22:04.070Z,19.65
2023-03-27T13:24:38.599Z,19.35
2023-03-27T13:27:24.403Z,18.91
2023-03-27T13:29:52.796Z,19.44
2023-03-27T13:32:33.732Z,19.68
2023-03-27T13:35:19.260Z,19.22
2023-03-27T13:37:54.410Z,18.84
2023-03-27T13:40:41.366Z,18.90
2023-03-27T13:43:33.809Z,19.29
2023-03-27T13:46:16.329Z,18.63
2023-03-27T13:48:48.695Z,18.78
2023-03-27T13:51:28.378Z,18.99
2023-03-27T13:54:23.389Z,17.64
2023-03-27T13:57:09.270Z,17.88
2023-03-27T13:59:54.126Z,17.90
2023-03-27T14:02:48.444Z,17.40
2023-03-27T14:06:00.023Z,16.38
2023-03-27T14:08:57.237Z,18.00
2023-03-27T14:11:50.778Z,17.27
2023-03-27T14:14:52.746Z,17.49
2023-03-27T14:17:31.709Z,16.64
2023-03-27T14:20:19.243Z,18.71
2023-03-27T14:23:03.695Z,16.38
2023-03-27T14:25:53.912Z,17.02
2023-03-27T14:28:51.772Z,15.84
2023-03-27T14:31:35.431Z,15.20
2023-03-27T14:34:15.977Z,16.52
2023-03-27T14:36:47.593Z,14.73
2023-03-27T14:39:27.860Z,15.34
2023-03-27T14:42:02.908Z,16.18
2023-03-27T14:44:33.403Z,15.92
2023-03-27T14:47:12.054Z,15.33
2023-03-27T14:49:49.136Z,16.46
2023-03-27T14:52:36.179Z,15.35
2023-03-27T14:55:24.274Z,15.25
2023-03-27T14:58:11.911Z,15.78
2023-03-27T15:00:41.670Z,14.90
2023-03-27T15:03:22.048Z,14.54
2023-03-27T15:06:05.807Z,16.36
2023-03-27T15:08:46.806Z,13.45
2023-03-27T15:11:41.113Z,14.82
2023-03-27T15:14:20.767Z,15.46
2023-03-27T15:17:15.776Z,14.52
2023-03-27T15:19:49.614Z,15.47
2023-03-27T15:22:29.865Z,14.21
2023-03-27T15:25:09.365Z,14.50
2023-03-27T15:27:49.531Z,14.44
2023-03-27T15:30:43.797Z,14.18
2023-03-27T15:33:20.408Z,14.28
2023-03-27T15:35:53.283Z,14.41
2023-03-27T15:38:28.860Z,14.40
2023-03-27T15:41:17.277Z,14.59
2023-03-27T15:43:44.354Z,14.87
2023-03-27T15:46:19.940Z,15.14
2023-03-27T15:48:55.457Z,15.94
2023-03-27T15:51:25.278Z,16.70
2023-03-27T15:53:55.805Z,16.14
2023-03-27T15:56:27.367Z,16.58
2023-03-27T15:59:10.679Z,16.96
2023-03-27T16:01:54.464Z,16.86
2023-03-27T16:04:25.813Z,16.81
2023-03-27T16:07:03.562Z,17.00
2023-03-27T16:09:34.379Z,17.96
2023-03-27T16:12:01.345Z,17.93
2023-03-27T16:14:43.844Z,16.84
2023-03-27T16:17:20.627Z,16.69
2023-03-27T16:19:56.439Z,17.44
2023-03-27T16:22:24.736Z,17.88
2023-03-27T16:24:52.494Z,17.09
2023-03-27T16:27:23.122Z,17.49
2023-03-27T16:29:51.599Z,17.89
2023-03-27T16:32:20.541Z,17.30
2023-03-27T16:34:53.454Z,17.45
2023-03-27T16:37:24.004Z,18.00
2023-03-27T16:39:51.169Z,17.46
2023-03-27T16:42:21.737Z,17.12
2023-03-27T16:44:50.833Z,17.35
2023-03-27T16:47:18.210Z,18.01
2023-03-27T16:49:49.178Z,17.09
2023-03-27T16:52:20.498Z,17.42
2023-03-27T16:54:47.584Z,16.87
2023-03-27T16:57:14.581Z,16.00
2023-03-27T16:59:41.415Z,15.74
2023-03-27T17:02:10.966Z,16.20
2023-03-27T17:04:37.895Z,16.06
2023-03-27T17:07:05.537Z,15.74
2023-03-27T17:09:33.116Z,15.62
2023-03-27T17:11:59.956Z,15.74
2023-03-27T17:14:27.410Z,16.07
2023-03-27T17:16:54.302Z,15.57
2023-03-27T17:19:21.457Z,15.79
2023-03-27T17:21:48.189Z,15.58
2023-03-27T17:24:15.201Z,16.15
2023-03-27T17:26:42.022Z,16.76
2023-03-27T17:29:10.536Z,17.22
2023-03-27T17:31:38.734Z,16.00
2023-03-27T17:34:07.027Z,17.23
2023-03-27T17:36:42.767Z,15.37
2023-03-27T17:39:14.267Z,15.39
2023-03-27T17:41:41.066Z,15.42
2023-03-27T17:44:14.447Z,15.58
2023-03-27T17:46:41.759Z,15.87
2023-03-27T17:49:08.520Z,15.45
2023-03-27T17:51:37.761Z,15.86
2023-03-27T17:54:04.696Z,15.61
2023-03-27T17:56:32.084Z,15.50
2023-03-27T17:59:00.203Z,15.79
2023-03-27T18:01:27.202Z,15.47
2023-03-27T18:03:55.307Z,14.98
2023-03-27T18:06:24.274Z,15.38
2023-03-27T18:08:51.131Z,15.24
2023-03-27T18:11:18.198Z,16.21
2023-03-27T18:13:45.196Z,15.28
2023-03-27T18:16:12.264Z,14.29
2023-03-27T18:18:39.779Z,15.12
2023-03-27T18:21:08.313Z,15.13
2023-03-27T18:23:35.484Z,14.60
2023-03-27T18:26:07.013Z,15.00
2023-03-27T18:28:34.561Z,14.65
2023-03-27T18:31:03.643Z,14.39
2023-03-27T18:33:30.743Z,14.46
2023-03-27T18:35:57.886Z,14.60
2023-03-27T18:38:25.998Z,14.93
2023-03-27T18:40:55.632Z,15.08
2023-03-27T18:43:23.550Z,14.89
2023-03-27T18:46:01.408Z,15.15
2023-03-27T18:48:31.069Z,14.34
2023-03-27T18:51:02.709Z,15.19
2023-03-27T18:53:30.972Z,15.70
2023-03-27T18:55:59.120Z,14.59
2023-03-27T18:58:28.261Z,14.07
2023-03-27T19:00:56.990Z,14.43
2023-03-27T19:03:26.455Z,14.25
2023-03-27T19:05:53.501Z,14.17
2023-03-27T19:08:21.821Z,14.09
2023-03-27T19:10:49.412Z,14.57
2023-03-27T19:13:42.153Z,14.73
2023-03-27T19:16:29.462Z,14.99
2023-03-27T19:19:34.381Z,14.86
2023-03-27T19:22:19.686Z,15.81
2023-03-27T19:24:52.140Z,15.62
2023-03-27T19:27:23.664Z,15.43
2023-03-27T19:29:54.939Z,15.96
2023-03-27T19:32:23.418Z,15.50
2023-03-27T19:34:50.419Z,15.39
2023-03-27T19:37:17.289Z,15.47
2023-03-27T19:39:44.323Z,15.08
2023-03-27T19:42:11.712Z,14.59
2023-03-27T19:44:38.801Z,15.22
2023-03-27T19:47:07.859Z,15.12
2023-03-27T19:49:34.728Z,15.85
2023-03-27T19:52:20.240Z,16.64
2023-03-27T19:54:47.471Z,15.13
2023-03-27T19:57:17.236Z,14.88
2023-03-27T19:59:44.259Z,15.06
2023-03-27T20:02:14.853Z,15.40
2023-03-27T20:04:41.853Z,14.62
2023-03-27T20:07:12.291Z,15.34
2023-03-27T20:09:39.410Z,14.37
2023-03-27T20:12:07.207Z,15.23
2023-03-27T20:14:34.232Z,15.03
2023-03-27T20:17:01.024Z,14.85
2023-03-27T20:19:30.749Z,15.35
2023-03-27T20:22:00.343Z,14.12
2023-03-27T20:24:29.086Z,15.74
2023-03-27T20:26:59.182Z,14.82
2023-03-27T20:29:26.459Z,15.07
2023-03-27T20:31:53.438Z,14.53
2023-03-27T20:34:22.531Z,15.07
2023-03-27T20:36:53.210Z,13.71
2023-03-27T20:39:49.855Z,14.12
2023-03-27T20:42:23.268Z,18.16
2023-03-27T20:44:58.641Z,14.22
2023-03-27T20:47:39.054Z,14.07
2023-03-27T20:50:06.917Z,13.35
2023-03-27T20:52:33.918Z,14.90
2023-03-27T20:55:01.857Z,14.40
2023-03-27T20:57:29.640Z,14.64
2023-03-27T20:59:56.595Z,14.15
2023-03-27T21:02:23.769Z,15.28
2023-03-27T21:04:50.652Z,13.97
2023-03-27T21:07:17.476Z,14.21
2023-03-27T21:09:46.111Z,15.96
2023-03-27T21:12:13.096Z,14.36
2023-03-27T21:14:39.959Z,14.14
2023-03-27T21:17:07.001Z,14.82
2023-03-27T21:19:33.866Z,14.36
2023-03-27T21:22:00.875Z,13.89
2023-03-27T21:24:28.025Z,14.96
2023-03-27T21:26:54.933Z,14.50
2023-03-27T21:29:21.857Z,14.01
2023-03-27T21:31:48.709Z,15.01
2023-03-27T21:34:15.540Z,14.28
2023-03-27T21:36:42.267Z,15.88
2023-03-27T21:39:10.002Z,14.97
2023-03-27T21:41:36.872Z,15.04
2023-03-27T21:44:03.846Z,15.67
2023-03-27T21:46:30.890Z,15.23
2023-03-27T21:48:57.735Z,15.75
2023-03-27T21:51:24.541Z,16.91
2023-03-27T21:53:51.640Z,17.02
2023-03-27T21:56:18.383Z,16.78
2023-03-27T21:58:45.363Z,16.23
2023-03-27T22:01:12.260Z,15.73
2023-03-27T22:03:39.109Z,15.76
2023-03-27T22:06:12.398Z,16.86
2023-03-27T22:08:41.585Z,16.37
2023-03-27T22:11:09.776Z,15.38
2023-03-27T22:13:38.086Z,15.82
2023-03-27T22:16:10.959Z,15.84
2023-03-27T22:18:38.299Z,16.97
2023-03-27T22:21:25.635Z,16.46
2023-03-27T22:23:54.032Z,16.25
2023-03-27T22:26:24.309Z,15.09
2023-03-27T22:28:52.659Z,13.69
2023-03-27T22:31:21.198Z,14.29
2023-03-27T22:33:48.523Z,13.36
2023-03-27T22:36:15.800Z,13.85
2023-03-27T22:38:42.800Z,13.12
2023-03-27T22:41:11.515Z,13.42
2023-03-27T22:43:39.140Z,13.31
2023-03-27T22:46:08.100Z,13.19
2023-03-27T22:48:34.933Z,13.96
2023-03-27T22:51:01.855Z,13.52
2023-03-27T22:53:29.560Z,12.77
2023-03-27T22:55:57.179Z,12.76
2023-03-27T22:58:25.220Z,13.66
2023-03-27T23:00:53.338Z,14.39
2023-03-27T23:03:21.309Z,13.29
2023-03-27T23:05:49.728Z,13.14
2023-03-27T23:08:18.817Z,13.85
2023-03-27T23:10:46.162Z,13.41
2023-03-27T23:13:13.262Z,14.04
2023-03-27T23:15:40.026Z,14.34
2023-03-27T23:18:06.867Z,13.91
2023-03-27T23:20:33.662Z,13.89
2023-03-27T23:23:00.458Z,13.62
2023-03-27T23:25:27.213Z,13.76
2023-03-27T23:27:53.975Z,13.45
2023-03-27T23:30:20.814Z,13.52
2023-03-27T23:32:47.493Z,13.52
2023-03-27T23:35:14.340Z,14.26
2023-03-27T23:37:41.079Z,13.81
2023-03-27T23:40:08.691Z,14.06
2023-03-27T23:42:35.447Z,15.03
2023-03-27T23:45:02.253Z,15.05
2023-03-27T23:47:28.972Z,14.83
2023-03-27T23:49:55.770Z,13.46
2023-03-27T23:52:22.491Z,14.36
2023-03-27T23:54:49.279Z,14.90
2023-03-27T23:57:16.041Z,15.43
2023-03-27T23:59:42.759Z,16.75
